Time;durP1;ratioP1;P1;durP2;ratioP2;P2;SDS_P1;SDS_P2;PMS_P1;PMS_P2;Temp;Humidity;BMP_temperature;BMP_pressure;BME280_temperature;BME280_humidity;BME280_pressure;Samples;Min_cycle;Max_cycle;Signal;HPM_P1;HPM_P2
2023/06/12 00:01:14;;;;;;;5.00;4.07;;;21.20;52.00;;;;;;4944700;28;20207;-74
2023/06/12 00:03:42;;;;;;;8.10;4.37;;;21.40;51.90;;;;;;4944916;28;20240;-73
2023/06/12 00:06:09;;;;;;;8.93;5.10;;;21.40;52.00;;;;;;4944080;28;20537;-73
2023/06/12 00:08:35;;;;;;;7.13;4.30;;;21.40;52.00;;;;;;4945482;28;20244;-73
2023/06/12 00:11:07;;;;;;;4.87;4.27;;;21.40;52.10;;;;;;4943215;28;20683;-74
2023/06/12 00:13:32;;;;;;;4.03;3.63;;;21.20;51.80;;;;;;4948509;28;20292;-75
2023/06/12 00:15:58;;;;;;;6.33;4.63;;;21.20;52.20;;;;;;4950659;28;20208;-74
2023/06/12 00:18:23;;;;;;;6.17;4.27;;;21.20;52.30;;;;;;4950503;28;20251;-73
2023/06/12 00:20:49;;;;;;;6.27;4.60;;;21.10;52.60;;;;;;4948538;28;20209;-73
2023/06/12 00:23:14;;;;;;;6.67;4.17;;;21.00;52.70;;;;;;4948336;28;20542;-74
2023/06/12 00:25:40;;;;;;;5.10;4.60;;;20.80;52.50;;;;;;4947170;28;20198;-73
2023/06/12 00:28:05;;;;;;;4.40;4.00;;;20.90;52.50;;;;;;4951514;28;20197;-73
2023/06/12 00:30:31;;;;;;;5.87;4.97;;;20.90;52.60;;;;;;4945115;28;20209;-74
2023/06/12 00:32:57;;;;;;;5.00;4.17;;;20.80;52.60;;;;;;4951094;28;20667;-74
2023/06/12 00:35:22;;;;;;;5.77;5.17;;;20.90;52.40;;;;;;4947979;28;20209;-72
2023/06/12 00:37:49;;;;;;;4.30;4.00;;;20.70;52.40;;;;;;4949947;28;20198;-73
2023/06/12 00:40:15;;;;;;;4.70;4.20;;;20.70;53.10;;;;;;4950656;28;20236;-73
2023/06/12 00:42:47;;;;;;;4.80;4.43;;;20.80;52.20;;;;;;4950719;28;20221;-73
2023/06/12 00:45:13;;;;;;;5.50;5.00;;;20.70;52.00;;;;;;4947070;28;20201;-74
2023/06/12 00:47:40;;;;;;;7.63;5.00;;;20.40;52.10;;;;;;4948659;28;20542;-74
2023/06/12 00:50:09;;;;;;;4.43;4.03;;;20.50;52.50;;;;;;4933259;28;20251;-73
2023/06/12 00:52:35;;;;;;;6.70;4.00;;;20.40;52.50;;;;;;4948284;28;20217;-73
2023/06/12 00:55:02;;;;;;;4.30;3.90;;;20.40;52.40;;;;;;4948349;28;20201;-74
2023/06/12 00:57:27;;;;;;;4.93;4.27;;;20.30;52.20;;;;;;4948946;28;20211;-74
2023/06/12 00:59:56;;;;;;;6.93;5.87;;;20.40;52.70;;;;;;4950078;28;20229;-73
2023/06/12 01:02:22;;;;;;;4.47;3.73;;;20.40;51.70;;;;;;4932551;28;20669;-71
2023/06/12 01:04:49;;;;;;;3.93;3.63;;;20.40;51.50;;;;;;4949880;28;20802;-73
2023/06/12 01:07:29;;;;;;;4.63;3.87;;;20.40;51.90;;;;;;4948393;28;20828;-76
2023/06/12 01:10:20;;;;;;;4.33;3.93;;;20.40;51.60;;;;;;4949373;28;20694;-75
2023/06/12 01:12:46;;;;;;;5.00;4.03;;;20.30;51.60;;;;;;4950799;28;20866;-75
2023/06/12 01:15:13;;;;;;;4.80;4.40;;;20.30;51.60;;;;;;4948972;28;20671;-75
2023/06/12 01:17:40;;;;;;;4.33;3.93;;;20.20;51.80;;;;;;4948732;28;20371;-73
2023/06/12 01:20:09;;;;;;;5.43;3.80;;;20.30;51.80;;;;;;4949384;28;20279;-75
2023/06/12 01:22:40;;;;;;;7.40;4.93;;;20.30;50.90;;;;;;4947467;28;20209;-76
2023/06/12 01:25:24;;;;;;;4.60;3.80;;;20.20;50.90;;;;;;4948064;28;20861;-76
2023/06/12 01:28:25;;;;;;;4.40;4.00;;;20.20;51.10;;;;;;4951493;28;20248;-76
2023/06/12 01:31:25;;;;;;;4.60;4.13;;;20.00;51.30;;;;;;4948715;28;20203;-72
2023/06/12 01:34:07;;;;;;;5.17;4.20;;;20.10;51.20;;;;;;4946489;28;20213;-72
2023/06/12 01:36:37;;;;;;;3.90;3.60;;;20.10;50.50;;;;;;4946140;28;20287;-72
2023/06/12 01:39:04;;;;;;;4.50;4.07;;;19.80;50.60;;;;;;4945849;28;20255;-74
2023/06/12 01:41:31;;;;;;;4.63;4.10;;;19.80;50.80;;;;;;4949720;28;20275;-73
2023/06/12 01:44:06;;;;;;;3.93;3.63;;;19.60;50.60;;;;;;4947557;28;20200;-75
2023/06/12 01:46:32;;;;;;;3.77;3.47;;;19.60;50.70;;;;;;4955934;28;20204;-73
2023/06/12 01:48:57;;;;;;;5.77;3.67;;;19.50;50.10;;;;;;4955330;28;20194;-73
2023/06/12 01:51:23;;;;;;;3.77;3.47;;;19.50;50.60;;;;;;4958489;28;20196;-74
2023/06/12 01:53:48;;;;;;;4.00;3.70;;;19.60;50.70;;;;;;4958360;28;20286;-77
2023/06/12 01:56:14;;;;;;;5.43;4.00;;;19.60;50.20;;;;;;4949094;28;20867;-74
2023/06/12 01:58:40;;;;;;;6.30;3.83;;;19.60;49.80;;;;;;4934799;28;20201;-75
2023/06/12 02:01:05;;;;;;;3.83;3.53;;;19.70;49.70;;;;;;4932606;28;20278;-74
2023/06/12 02:03:32;;;;;;;7.67;3.80;;;19.50;49.90;;;;;;4942747;28;20268;-75
2023/06/12 02:05:58;;;;;;;5.37;3.50;;;19.50;49.40;;;;;;4949422;28;20204;-75
2023/06/12 02:08:23;;;;;;;3.80;3.50;;;19.50;49.60;;;;;;4947884;28;20580;-74
2023/06/12 02:10:49;;;;;;;3.80;3.50;;;19.40;49.60;;;;;;4948478;28;20222;-74
2023/06/12 02:13:14;;;;;;;5.13;3.50;;;19.40;50.30;;;;;;4951443;28;20214;-73
2023/06/12 02:15:40;;;;;;;3.70;3.30;;;19.40;48.80;;;;;;4950703;28;20213;-73
2023/06/12 02:18:06;;;;;;;4.80;3.27;;;19.30;48.80;;;;;;4958171;28;20195;-74
2023/06/12 02:20:31;;;;;;;3.03;2.83;;;19.30;48.90;;;;;;4957917;28;20216;-73
2023/06/12 02:22:57;;;;;;;3.33;3.10;;;19.40;49.90;;;;;;4958228;28;20296;-73
2023/06/12 02:25:22;;;;;;;3.67;3.30;;;19.40;50.40;;;;;;4956792;28;20665;-74
2023/06/12 02:27:47;;;;;;;3.73;2.97;;;19.40;50.20;;;;;;4958895;28;20204;-74
2023/06/12 02:30:13;;;;;;;3.67;3.37;;;19.40;50.00;;;;;;4958120;28;20205;-74
2023/06/12 02:32:39;;;;;;;4.10;3.70;;;19.40;49.40;;;;;;4948526;28;20207;-74
2023/06/12 02:35:08;;;;;;;3.70;3.40;;;19.40;49.00;;;;;;4958491;28;20754;-74
2023/06/12 02:37:35;;;;;;;5.93;3.07;;;19.30;49.40;;;;;;4951440;28;20213;-74
2023/06/12 02:40:00;;;;;;;6.20;3.87;;;19.30;49.00;;;;;;4958369;28;20217;-75
2023/06/12 02:42:26;;;;;;;3.80;3.20;;;19.20;49.70;;;;;;4957145;28;20193;-73
2023/06/12 02:44:51;;;;;;;3.70;3.40;;;19.20;48.90;;;;;;4956502;28;20288;-74
2023/06/12 02:47:18;;;;;;;7.07;3.80;;;19.20;50.00;;;;;;4955356;28;20255;-74
2023/06/12 02:49:44;;;;;;;3.77;3.40;;;19.10;50.40;;;;;;4943992;28;20207;-75
2023/06/12 02:52:11;;;;;;;2.80;2.60;;;19.10;49.30;;;;;;4958200;28;20255;-74
2023/06/12 02:54:36;;;;;;;4.03;3.57;;;19.10;50.70;;;;;;4958151;28;20208;-73
2023/06/12 02:57:02;;;;;;;3.13;2.90;;;19.10;49.70;;;;;;4940655;28;20794;-73
2023/06/12 02:59:28;;;;;;;4.57;3.07;;;19.10;50.60;;;;;;4957768;28;20260;-74
2023/06/12 03:01:53;;;;;;;4.77;3.53;;;19.20;50.30;;;;;;4955815;28;20227;-73
2023/06/12 03:04:20;;;;;;;4.43;3.27;;;19.00;49.60;;;;;;4957721;28;20277;-73
2023/06/12 03:06:48;;;;;;;5.43;4.20;;;18.90;50.40;;;;;;4940581;28;20259;-73
2023/06/12 03:09:15;;;;;;;4.80;3.60;;;18.90;50.00;;;;;;4955344;28;20246;-71
2023/06/12 03:11:42;;;;;;;5.87;3.93;;;18.80;50.80;;;;;;4948871;28;20209;-71
2023/06/12 03:14:08;;;;;;;8.90;3.93;;;18.70;51.20;;;;;;4947469;28;20224;-71
2023/06/12 03:16:33;;;;;;;4.90;3.93;;;18.50;52.30;;;;;;4947903;28;20725;-72
2023/06/12 03:18:59;;;;;;;5.70;3.90;;;18.70;52.70;;;;;;4948414;28;20208;-71
2023/06/12 03:21:25;;;;;;;11.47;3.93;;;18.70;51.90;;;;;;4947312;28;20668;-71
2023/06/12 03:23:51;;;;;;;6.10;3.67;;;18.60;52.00;;;;;;4947932;28;20241;-71
2023/06/12 03:26:16;;;;;;;4.50;4.10;;;18.50;52.50;;;;;;4946923;28;20198;-72
2023/06/12 03:28:44;;;;;;;5.73;4.40;;;18.60;53.20;;;;;;4948402;28;20210;-70
2023/06/12 03:31:10;;;;;;;6.10;3.33;;;18.60;52.80;;;;;;4948638;28;20600;-70
2023/06/12 03:33:35;;;;;;;7.20;4.10;;;18.50;53.00;;;;;;4948419;28;20202;-71
2023/06/12 03:36:01;;;;;;;4.57;4.17;;;18.40;52.60;;;;;;4949273;28;20205;-70
2023/06/12 03:38:26;;;;;;;4.73;4.33;;;18.50;53.10;;;;;;4947725;28;20220;-73
2023/06/12 03:40:52;;;;;;;6.40;4.33;;;18.40;52.90;;;;;;4947176;28;20294;-73
2023/06/12 03:43:17;;;;;;;3.67;3.37;;;18.30;53.70;;;;;;4947476;28;20231;-73
2023/06/12 03:45:43;;;;;;;5.83;3.47;;;18.30;54.30;;;;;;4947831;28;20208;-73
2023/06/12 03:48:08;;;;;;;8.17;4.43;;;18.20;54.80;;;;;;4952773;28;20201;-72
2023/06/12 03:50:34;;;;;;;6.33;3.63;;;18.30;54.50;;;;;;4948657;28;20299;-73
2023/06/12 03:53:00;;;;;;;4.80;3.70;;;18.40;53.20;;;;;;4951198;28;20209;-71
2023/06/12 03:55:25;;;;;;;8.07;3.63;;;18.20;53.20;;;;;;4953432;28;20720;-72
2023/06/12 03:57:51;;;;;;;6.23;4.50;;;18.30;54.20;;;;;;4948180;28;20263;-72
2023/06/12 04:00:17;;;;;;;4.87;4.13;;;18.30;54.30;;;;;;4951706;28;20931;-72
2023/06/12 04:02:43;;;;;;;6.10;3.73;;;18.30;53.70;;;;;;4952224;28;20212;-72
2023/06/12 04:05:08;;;;;;;4.83;3.53;;;18.20;54.00;;;;;;4951293;28;20204;-73
2023/06/12 04:07:36;;;;;;;9.40;4.33;;;18.30;54.00;;;;;;4931913;28;20736;-73
2023/06/12 04:10:08;;;;;;;4.83;3.63;;;18.20;54.20;;;;;;4950532;28;20205;-73
2023/06/12 04:12:33;;;;;;;4.20;3.90;;;18.20;54.00;;;;;;4950839;28;20583;-74
2023/06/12 04:14:59;;;;;;;5.93;4.63;;;18.20;54.10;;;;;;4950547;28;20213;-73
2023/06/12 04:17:24;;;;;;;5.13;3.97;;;18.10;54.80;;;;;;4937192;28;20587;-73
2023/06/12 04:19:50;;;;;;;4.00;3.60;;;18.10;54.40;;;;;;4950692;28;20296;-73
2023/06/12 04:22:16;;;;;;;5.13;4.00;;;18.20;54.70;;;;;;4955103;28;20207;-73
2023/06/12 04:24:42;;;;;;;6.47;4.33;;;18.30;54.50;;;;;;4954610;28;20228;-72
2023/06/12 04:27:11;;;;;;;5.97;4.07;;;18.30;54.40;;;;;;4949019;28;20211;-72
2023/06/12 04:29:38;;;;;;;9.47;4.53;;;18.40;54.10;;;;;;4949986;28;20209;-73
2023/06/12 04:32:07;;;;;;;9.20;4.97;;;18.40;53.90;;;;;;4950667;28;20256;-72
2023/06/12 04:34:43;;;;;;;8.53;4.70;;;18.40;54.40;;;;;;4950660;28;20218;-73
2023/06/12 04:37:11;;;;;;;7.37;4.87;;;18.40;54.20;;;;;;4943869;28;20205;-73
2023/06/12 04:39:38;;;;;;;11.83;4.77;;;18.20;53.90;;;;;;4951947;28;20536;-73
2023/06/12 04:42:05;;;;;;;4.63;3.70;;;18.30;54.40;;;;;;4951444;28;20207;-72
2023/06/12 04:44:34;;;;;;;6.43;4.63;;;18.40;54.20;;;;;;4948132;28;20355;-73
2023/06/12 04:47:04;;;;;;;6.97;5.17;;;18.40;54.60;;;;;;4950195;28;20226;-72
2023/06/12 04:49:32;;;;;;;6.37;4.10;;;18.40;54.10;;;;;;4950218;28;20207;-73
2023/06/12 04:52:00;;;;;;;6.33;3.73;;;18.20;54.10;;;;;;4941637;28;20201;-73
2023/06/12 04:54:28;;;;;;;8.83;4.13;;;18.30;54.50;;;;;;4950579;28;20207;-73
2023/06/12 04:56:54;;;;;;;5.67;4.17;;;18.40;53.80;;;;;;4932686;28;20230;-73
2023/06/12 04:59:20;;;;;;;6.37;4.10;;;18.50;53.60;;;;;;4951088;28;20201;-73
2023/06/12 05:01:46;;;;;;;10.27;7.87;;;18.40;54.00;;;;;;4947824;28;20220;-73
2023/06/12 05:04:11;;;;;;;7.77;4.33;;;18.50;54.50;;;;;;4949877;28;20206;-73
2023/06/12 05:06:40;;;;;;;7.33;4.67;;;18.50;54.80;;;;;;4949828;28;20779;-73
2023/06/12 05:09:07;;;;;;;5.27;3.90;;;18.70;54.80;;;;;;4949689;28;20205;-73
2023/06/12 05:11:33;;;;;;;5.00;3.70;;;18.70;54.20;;;;;;4952252;28;20207;-73
2023/06/12 05:13:58;;;;;;;4.33;3.87;;;18.80;54.00;;;;;;4946123;28;20204;-73
2023/06/12 05:16:23;;;;;;;9.17;4.30;;;18.90;53.20;;;;;;4954829;28;20637;-73
2023/06/12 05:18:49;;;;;;;7.87;4.00;;;19.00;52.90;;;;;;4950416;28;20283;-73
2023/06/12 05:21:15;;;;;;;7.03;4.50;;;19.10;53.70;;;;;;4950100;28;20250;-74
2023/06/12 05:23:41;;;;;;;6.53;3.50;;;19.20;53.00;;;;;;4950095;28;20229;-74
2023/06/12 05:26:07;;;;;;;7.63;3.83;;;19.20;52.80;;;;;;4949306;28;20242;-74
2023/06/12 05:28:32;;;;;;;6.47;3.53;;;19.10;51.90;;;;;;4931761;28;20199;-74
2023/06/12 05:30:57;;;;;;;6.70;4.33;;;19.10;53.20;;;;;;4949826;28;20205;-74
2023/06/12 05:33:23;;;;;;;5.50;4.13;;;19.20;52.00;;;;;;4948715;28;20741;-74
2023/06/12 05:35:49;;;;;;;4.33;3.30;;;19.20;52.30;;;;;;4947942;28;20296;-74
2023/06/12 05:38:15;;;;;;;7.63;3.80;;;19.30;53.20;;;;;;4950331;28;20207;-75
2023/06/12 05:40:40;;;;;;;9.70;3.80;;;19.40;51.40;;;;;;4950350;28;20308;-75
2023/06/12 05:43:06;;;;;;;4.50;3.70;;;19.40;52.20;;;;;;4951414;28;20205;-76
2023/06/12 05:45:31;;;;;;;5.30;4.03;;;19.50;51.60;;;;;;4948534;28;20240;-76
2023/06/12 05:47:57;;;;;;;6.60;3.73;;;19.50;51.40;;;;;;4947298;28;20201;-75
2023/06/12 05:50:22;;;;;;;3.53;3.23;;;19.60;51.90;;;;;;4944150;28;20699;-74
2023/06/12 05:52:49;;;;;;;5.17;3.47;;;19.50;51.60;;;;;;4949297;28;20211;-74
2023/06/12 05:55:14;;;;;;;7.73;3.77;;;19.50;51.90;;;;;;4949312;28;20302;-73
2023/06/12 05:57:40;;;;;;;5.40;3.73;;;19.60;52.40;;;;;;4948408;28;20331;-74
2023/06/12 06:00:06;;;;;;;5.03;3.40;;;19.70;51.90;;;;;;4947159;28;20573;-73
2023/06/12 06:02:32;;;;;;;5.50;3.40;;;19.70;51.50;;;;;;4949704;28;20217;-74
2023/06/12 06:04:57;;;;;;;5.07;3.77;;;19.90;52.80;;;;;;4949620;28;20916;-75
2023/06/12 06:07:23;;;;;;;8.40;4.07;;;20.10;52.90;;;;;;4949503;28;20781;-74
2023/06/12 06:09:49;;;;;;;9.40;3.83;;;20.10;51.50;;;;;;4948553;28;20193;-74
2023/06/12 06:12:15;;;;;;;5.17;3.67;;;20.20;51.80;;;;;;4946103;28;20695;-74
2023/06/12 06:14:40;;;;;;;8.20;4.10;;;20.20;51.70;;;;;;4949061;28;20209;-75
2023/06/12 06:17:06;;;;;;;4.53;3.50;;;20.20;51.10;;;;;;4948794;28;20193;-74
2023/06/12 06:19:31;;;;;;;4.07;3.77;;;20.10;51.50;;;;;;4949064;28;20198;-74
2023/06/12 06:21:58;;;;;;;7.20;3.70;;;20.20;51.60;;;;;;4948561;28;20205;-75
2023/06/12 06:24:23;;;;;;;6.23;3.63;;;20.20;51.10;;;;;;4950866;28;20232;-74
2023/06/12 06:26:50;;;;;;;4.37;3.97;;;20.20;52.00;;;;;;4927812;28;20221;-75
2023/06/12 06:29:15;;;;;;;4.37;3.20;;;20.30;52.40;;;;;;4949381;28;20197;-74
2023/06/12 06:31:41;;;;;;;6.47;3.93;;;20.40;51.40;;;;;;4949547;28;20778;-73
2023/06/12 06:34:06;;;;;;;9.10;3.70;;;20.50;52.00;;;;;;4949186;28;20236;-73
2023/06/12 06:36:32;;;;;;;5.70;3.57;;;20.60;53.20;;;;;;4948647;28;20214;-74
2023/06/12 06:38:57;;;;;;;9.87;3.93;;;20.90;52.20;;;;;;4947811;28;20611;-74
2023/06/12 06:41:23;;;;;;;27.57;6.87;;;20.90;51.80;;;;;;4931201;28;20218;-74
2023/06/12 06:43:48;;;;;;;15.00;4.47;;;20.90;51.70;;;;;;4951485;28;20924;-74
2023/06/12 06:46:14;;;;;;;16.20;6.10;;;20.90;51.70;;;;;;4958524;28;20224;-73
2023/06/12 06:48:39;;;;;;;3.63;3.33;;;21.00;52.50;;;;;;4958238;28;20204;-74
2023/06/12 06:51:05;;;;;;;7.17;3.63;;;21.00;53.20;;;;;;4944598;28;20374;-75
2023/06/12 06:53:31;;;;;;;7.53;3.80;;;21.10;53.10;;;;;;4943990;28;20206;-75
2023/06/12 06:55:57;;;;;;;4.97;3.87;;;21.10;53.40;;;;;;4942687;28;20205;-74
2023/06/12 06:58:22;;;;;;;7.10;4.57;;;21.20;53.10;;;;;;4943648;28;20213;-74
2023/06/12 07:00:48;;;;;;;3.50;3.20;;;21.30;52.90;;;;;;4943520;28;20296;-74
2023/06/12 07:03:14;;;;;;;7.77;3.43;;;21.30;52.50;;;;;;4940021;28;20198;-74
2023/06/12 07:05:39;;;;;;;9.37;4.13;;;21.40;53.60;;;;;;4953518;28;20261;-73
2023/06/12 07:08:07;;;;;;;3.60;3.30;;;21.50;52.80;;;;;;4957854;28;20698;-73
2023/06/12 07:10:33;;;;;;;5.20;4.00;;;21.50;52.40;;;;;;4958229;28;20216;-76
2023/06/12 07:12:58;;;;;;;12.13;4.60;;;21.60;52.30;;;;;;4957576;28;20198;-75
2023/06/12 07:15:25;;;;;;;4.70;3.58;;;21.60;53.20;;;;;;4956122;28;20496;-73
2023/06/12 07:17:51;;;;;;;8.52;4.45;;;21.70;52.90;;;;;;4957974;28;20209;-73
2023/06/12 07:20:17;;;;;;;9.30;4.32;;;21.80;52.00;;;;;;4956606;28;20672;-74
2023/06/12 07:22:42;;;;;;;4.53;3.73;;;22.00;51.10;;;;;;4959738;28;20202;-76
2023/06/12 07:25:08;;;;;;;8.90;4.97;;;21.90;52.20;;;;;;4959870;28;20594;-69
2023/06/12 07:27:34;;;;;;;5.53;3.53;;;21.40;54.60;;;;;;4959509;28;20247;-75
2023/06/12 07:29:59;;;;;;;4.20;3.80;;;21.00;55.80;;;;;;4944485;28;20716;-75
2023/06/12 07:32:25;;;;;;;5.77;3.80;;;20.70;56.10;;;;;;4961635;28;20686;-70
2023/06/12 07:34:51;;;;;;;4.33;3.20;;;20.70;56.70;;;;;;4961606;28;20206;-71
2023/06/12 07:37:20;;;;;;;4.57;4.17;;;20.40;71.60;;;;;;4957009;28;20284;-70
2023/06/12 07:39:46;;;;;;;5.13;3.60;;;20.10;59.00;;;;;;4944019;28;20197;-69
2023/06/12 07:42:12;;;;;;;5.70;3.13;;;20.50;58.30;;;;;;4945971;28;20209;-72
2023/06/12 07:44:40;;;;;;;4.73;3.80;;;20.70;57.10;;;;;;4948720;28;20210;-70
2023/06/12 07:47:06;;;;;;;7.37;3.70;;;20.60;56.60;;;;;;4951915;28;20841;-72
2023/06/12 07:49:32;;;;;;;6.57;3.83;;;21.00;52.80;;;;;;4951685;28;20795;-69
2023/06/12 07:51:58;;;;;;;3.43;3.13;;;21.20;53.30;;;;;;4951306;28;20206;-72
2023/06/12 07:54:23;;;;;;;4.93;3.53;;;21.40;51.80;;;;;;4951099;28;20205;-71
2023/06/12 07:56:51;;;;;;;5.07;3.83;;;21.60;51.30;;;;;;4951354;28;20216;-71
2023/06/12 07:59:17;;;;;;;5.70;3.43;;;21.70;51.30;;;;;;4933730;29;20202;-73
2023/06/12 08:01:43;;;;;;;3.50;3.20;;;21.80;51.80;;;;;;4949173;28;20296;-71
2023/06/12 08:04:11;;;;;;;3.23;2.93;;;21.90;50.60;;;;;;4951472;28;20288;-72
2023/06/12 08:06:39;;;;;;;4.57;3.40;;;22.00;51.10;;;;;;4953641;28;20208;-71
2023/06/12 08:09:05;;;;;;;3.47;2.93;;;22.10;49.00;;;;;;4949451;28;20211;-72
2023/06/12 08:11:31;;;;;;;3.97;3.43;;;22.10;48.40;;;;;;4951329;28;20249;-72
2023/06/12 08:13:56;;;;;;;5.40;3.57;;;22.10;48.60;;;;;;4948997;28;20628;-71
2023/06/12 08:16:23;;;;;;;4.40;3.87;;;22.20;51.00;;;;;;4950734;28;20200;-71
2023/06/12 08:18:49;;;;;;;7.50;3.63;;;22.30;48.80;;;;;;4945355;28;20312;-72
2023/06/12 08:21:14;;;;;;;4.00;3.60;;;22.40;47.30;;;;;;4950078;28;20212;-75
2023/06/12 08:23:39;;;;;;;3.57;3.27;;;22.40;45.80;;;;;;4950411;28;20254;-74
2023/06/12 08:26:06;;;;;;;3.50;3.20;;;22.40;45.70;;;;;;4949063;28;20198;-73
2023/06/12 08:28:33;;;;;;;4.27;3.50;;;22.40;47.60;;;;;;4954612;28;20213;-74
2023/06/12 08:31:01;;;;;;;3.57;3.13;;;22.40;47.80;;;;;;4948320;28;20238;-72
2023/06/12 08:33:27;;;;;;;3.50;3.20;;;22.50;45.90;;;;;;4950284;28;20672;-72
2023/06/12 08:35:53;;;;;;;3.70;3.27;;;22.60;47.80;;;;;;4932148;28;20893;-72
2023/06/12 08:38:19;;;;;;;3.80;3.40;;;22.80;45.90;;;;;;4945974;28;20198;-72
2023/06/12 08:40:46;;;;;;;4.27;3.43;;;22.80;46.40;;;;;;4950511;28;20577;-73
2023/06/12 08:43:12;;;;;;;6.60;3.17;;;22.90;46.90;;;;;;4935554;28;20282;-72
2023/06/12 08:45:50;;;;;;;3.70;3.40;;;22.90;46.30;;;;;;4942067;28;20210;-72
2023/06/12 08:48:19;;;;;;;3.20;2.90;;;22.90;45.90;;;;;;4918185;29;20206;-71
2023/06/12 08:50:45;;;;;;;9.95;3.78;;;23.10;46.60;;;;;;4934481;28;20513;-72
2023/06/12 08:53:11;;;;;;;3.90;3.50;;;23.20;45.80;;;;;;4947883;28;20240;-72
2023/06/12 08:55:39;;;;;;;6.60;3.72;;;23.20;47.70;;;;;;4939208;28;20202;-71
2023/06/12 08:58:09;;;;;;;4.67;3.10;;;23.10;45.60;;;;;;4941211;28;21209;-71
2023/06/12 09:00:35;;;;;;;7.85;3.80;;;23.20;45.80;;;;;;4935551;28;20309;-74
2023/06/12 09:03:04;;;;;;;4.67;3.60;;;23.30;46.20;;;;;;4947082;28;20572;-72
2023/06/12 09:05:33;;;;;;;3.77;3.40;;;23.50;45.30;;;;;;4939104;28;20648;-73
2023/06/12 09:08:05;;;;;;;3.50;3.20;;;23.50;44.90;;;;;;4940644;28;20285;-74
2023/06/12 09:10:32;;;;;;;4.95;3.42;;;23.50;45.30;;;;;;4937580;28;20211;-72
2023/06/12 09:12:59;;;;;;;3.38;3.17;;;23.60;45.00;;;;;;4941390;28;20205;-74
2023/06/12 09:15:25;;;;;;;6.03;3.20;;;23.40;45.40;;;;;;4939635;28;21010;-72
2023/06/12 09:17:55;;;;;;;6.80;3.47;;;23.60;45.00;;;;;;4942313;28;20214;-71
2023/06/12 09:20:29;;;;;;;4.78;3.53;;;23.60;45.90;;;;;;4944917;28;20218;-72
2023/06/12 09:22:56;;;;;;;6.30;3.80;;;23.70;45.60;;;;;;4942351;28;20193;-73
2023/06/12 09:25:33;;;;;;;3.08;2.83;;;23.90;45.40;;;;;;4943979;28;20234;-72
2023/06/12 09:27:58;;;;;;;6.30;3.28;;;23.80;45.20;;;;;;4943410;28;20291;-72
2023/06/12 09:30:24;;;;;;;9.75;3.60;;;23.80;45.80;;;;;;4941576;28;20758;-73
2023/06/12 09:32:51;;;;;;;4.85;3.08;;;23.90;46.40;;;;;;4923880;28;20209;-71
2023/06/12 09:35:17;;;;;;;3.60;3.30;;;23.90;46.10;;;;;;4952585;28;20244;-72
2023/06/12 09:37:43;;;;;;;4.07;3.78;;;24.00;44.90;;;;;;4949287;28;20206;-72
2023/06/12 09:40:10;;;;;;;4.38;3.75;;;23.90;44.30;;;;;;4948631;28;20209;-72
2023/06/12 09:42:37;;;;;;;3.78;3.47;;;23.90;46.20;;;;;;4946331;28;20214;-73
2023/06/12 09:45:11;;;;;;;4.57;3.80;;;23.90;46.20;;;;;;4939566;28;20927;-73
2023/06/12 09:47:48;;;;;;;5.63;3.72;;;23.90;46.10;;;;;;4950150;28;20197;-73
2023/06/12 09:50:22;;;;;;;4.40;4.00;;;23.90;47.40;;;;;;4927103;28;20567;-73
2023/06/12 09:52:49;;;;;;;4.10;3.70;;;24.20;46.20;;;;;;4931097;29;20229;-72
2023/06/12 09:55:16;;;;;;;3.78;3.47;;;24.20;46.10;;;;;;4946213;28;20674;-73
2023/06/12 09:57:52;;;;;;;5.55;3.80;;;24.20;45.30;;;;;;4940944;28;20206;-74
2023/06/12 10:00:19;;;;;;;4.20;3.40;;;24.40;45.70;;;;;;4940820;28;20225;-72
2023/06/12 10:02:55;;;;;;;4.30;3.90;;;24.40;46.00;;;;;;4948444;28;20217;-75
2023/06/12 10:05:35;;;;;;;8.13;3.78;;;24.40;46.40;;;;;;4944708;28;20700;-73
2023/06/12 10:08:01;;;;;;;6.22;5.10;;;24.50;45.50;;;;;;4948595;28;20535;-75
2023/06/12 10:10:27;;;;;;;4.53;3.63;;;24.50;47.90;;;;;;4941571;28;20208;-72
2023/06/12 10:12:56;;;;;;;5.57;3.78;;;24.30;48.90;;;;;;4946128;28;20292;-72
2023/06/12 10:15:22;;;;;;;6.13;3.72;;;24.10;47.50;;;;;;4951408;28;20258;-72
2023/06/12 10:17:50;;;;;;;4.85;3.67;;;24.10;46.70;;;;;;4941534;28;20234;-71
2023/06/12 10:20:18;;;;;;;4.60;4.15;;;24.20;46.80;;;;;;4941574;28;20374;-73
2023/06/12 10:22:43;;;;;;;4.75;4.30;;;24.30;46.70;;;;;;4944343;28;20206;-72
2023/06/12 10:25:10;;;;;;;3.30;3.05;;;24.30;47.60;;;;;;4947053;28;20225;-75
2023/06/12 10:27:38;;;;;;;6.38;4.10;;;24.40;46.60;;;;;;4945893;28;20208;-73
2023/06/12 10:30:08;;;;;;;5.40;4.57;;;24.30;47.60;;;;;;4946097;28;20348;-73
2023/06/12 10:32:34;;;;;;;5.40;4.50;;;24.20;47.90;;;;;;4945023;28;20597;-72
2023/06/12 10:35:01;;;;;;;4.93;4.53;;;24.20;48.70;;;;;;4947687;28;20225;-74
2023/06/12 10:37:30;;;;;;;5.78;4.20;;;24.10;49.00;;;;;;4930319;28;20664;-73
2023/06/12 10:40:16;;;;;;;5.75;4.35;;;24.30;49.40;;;;;;4946174;28;20693;-74
2023/06/12 10:42:54;;;;;;;6.45;4.35;;;24.50;49.00;;;;;;4926253;28;20693;-73
2023/06/12 10:45:19;;;;;;;7.63;4.32;;;24.70;49.60;;;;;;4946079;28;20198;-72
2023/06/12 10:48:03;;;;;;;5.78;4.20;;;24.60;49.30;;;;;;4945969;28;20228;-73
2023/06/12 10:50:36;;;;;;;4.57;4.17;;;24.40;49.90;;;;;;4947348;28;20201;-73
2023/06/12 10:53:06;;;;;;;11.15;3.92;;;24.50;50.80;;;;;;4948139;28;20212;-75
2023/06/12 10:55:37;;;;;;;6.80;4.28;;;24.60;49.20;;;;;;4947092;28;20206;-74
2023/06/12 10:58:05;;;;;;;5.38;4.07;;;24.50;49.60;;;;;;4950408;28;20214;-74
2023/06/12 11:00:48;;;;;;;9.38;4.75;;;24.40;49.80;;;;;;4953510;28;20261;-77
2023/06/12 11:03:24;;;;;;;4.63;4.22;;;24.20;50.30;;;;;;4951103;28;20284;-77
2023/06/12 11:05:54;;;;;;;4.85;4.15;;;24.10;50.20;;;;;;4952719;28;20744;-75
2023/06/12 11:08:20;;;;;;;4.63;3.88;;;24.30;50.60;;;;;;4951370;28;20197;-75
2023/06/12 11:10:45;;;;;;;8.02;4.05;;;24.20;50.20;;;;;;4952656;28;20206;-75
2023/06/12 11:13:11;;;;;;;4.72;3.53;;;24.10;50.40;;;;;;4952400;28;20230;-75
2023/06/12 11:15:47;;;;;;;6.90;4.75;;;24.40;50.50;;;;;;4934809;28;20779;-75
2023/06/12 11:18:14;;;;;;;7.00;4.20;;;24.60;50.10;;;;;;4949887;28;20257;-83
2023/06/12 11:20:40;;;;;;;7.15;4.32;;;24.50;49.50;;;;;;4943939;28;20246;-79
2023/06/12 11:23:06;;;;;;;9.25;4.50;;;24.50;49.80;;;;;;4951058;28;20231;-74
2023/06/12 11:25:42;;;;;;;5.03;3.97;;;24.90;51.00;;;;;;4950674;28;20568;-74
2023/06/12 11:28:08;;;;;;;4.90;3.88;;;25.30;50.10;;;;;;4950563;28;20206;-75
2023/06/12 11:30:33;;;;;;;5.55;4.50;;;25.00;49.20;;;;;;4952180;28;20228;-77
2023/06/12 11:33:07;;;;;;;4.63;4.22;;;25.00;49.10;;;;;;4953134;28;20194;-78
2023/06/12 11:35:39;;;;;;;4.97;3.85;;;25.00;48.60;;;;;;4949531;28;20225;-75
2023/06/12 11:38:05;;;;;;;4.10;3.70;;;25.00;49.10;;;;;;4951388;28;20283;-77
2023/06/12 11:40:31;;;;;;;4.57;3.70;;;25.50;48.30;;;;;;4951483;28;20220;-78
2023/06/12 11:42:57;;;;;;;6.65;4.13;;;25.70;48.40;;;;;;4951210;28;20202;-74
2023/06/12 11:45:22;;;;;;;7.80;3.88;;;26.20;46.40;;;;;;4950186;28;20199;-74
2023/06/12 11:47:49;;;;;;;6.78;3.67;;;26.40;46.50;;;;;;4954708;28;20207;-75
2023/06/12 11:50:17;;;;;;;6.32;4.47;;;26.30;45.90;;;;;;4948826;28;20202;-74
2023/06/12 11:52:45;;;;;;;4.50;4.13;;;26.10;46.90;;;;;;4950949;28;20257;-75
2023/06/12 11:55:12;;;;;;;5.78;4.63;;;25.90;46.80;;;;;;4934094;28;20211;-76
2023/06/12 11:57:39;;;;;;;3.85;3.35;;;25.50;46.70;;;;;;4949588;28;20203;-76
2023/06/12 12:00:17;;;;;;;6.82;4.45;;;25.50;47.40;;;;;;4933042;28;20542;-76
2023/06/12 12:02:49;;;;;;;4.22;3.90;;;26.40;46.40;;;;;;4936921;28;20544;-77
2023/06/12 12:05:21;;;;;;;4.57;4.18;;;26.60;44.90;;;;;;4942127;28;20739;-77
2023/06/12 12:07:55;;;;;;;5.35;4.70;;;27.10;44.50;;;;;;4956187;28;21064;-85
2023/06/12 12:10:22;;;;;;;10.48;4.80;;;27.10;45.20;;;;;;4953895;28;20210;-77
2023/06/12 12:12:50;;;;;;;6.47;4.13;;;26.60;45.80;;;;;;4950618;28;20210;-77
2023/06/12 12:15:18;;;;;;;4.55;3.88;;;27.20;45.00;;;;;;4951191;28;20198;-77
2023/06/12 12:17:45;;;;;;;4.50;4.10;;;26.90;45.30;;;;;;4934931;28;20209;-77
2023/06/12 12:20:20;;;;;;;6.72;4.38;;;26.70;46.10;;;;;;4929631;29;20222;-77
2023/06/12 12:22:55;;;;;;;4.10;3.78;;;26.50;46.40;;;;;;4946079;28;20209;-83
2023/06/12 12:25:29;;;;;;;8.00;4.80;;;26.30;46.50;;;;;;4948614;28;20622;-75
2023/06/12 12:27:56;;;;;;;4.15;3.75;;;26.20;46.10;;;;;;4950203;28;20509;-76
2023/06/12 12:30:22;;;;;;;4.68;4.28;;;26.20;46.90;;;;;;4960393;28;20200;-76
2023/06/12 12:32:52;;;;;;;3.60;3.30;;;26.00;45.80;;;;;;4954268;28;20204;-76
2023/06/12 12:35:19;;;;;;;5.53;3.83;;;26.10;45.60;;;;;;4958825;28;20212;-76
2023/06/12 12:37:45;;;;;;;4.90;3.83;;;26.40;46.00;;;;;;4946989;28;20241;-77
2023/06/12 12:40:13;;;;;;;4.60;3.95;;;26.70;45.00;;;;;;4951190;28;20302;-76
2023/06/12 12:42:46;;;;;;;4.75;4.35;;;27.00;45.20;;;;;;4950632;28;20209;-77
2023/06/12 12:45:13;;;;;;;5.85;3.97;;;27.10;44.40;;;;;;4948784;28;20195;-76
2023/06/12 12:47:48;;;;;;;3.88;3.58;;;27.30;44.40;;;;;;4956635;28;20613;-78